Time;durP1;ratioP1;P1;durP2;ratioP2;P2;SDS_P1;SDS_P2;PMS_P1;PMS_P2;Temp;Humidity;BMP_temperature;BMP_pressure;BME280_temperature;BME280_humidity;BME280_pressure;Samples;Min_cycle;Max_cycle;Signal;HPM_P1;HPM_P2
2022/11/30 00:01:34;;;;;;;;;;;;;;;;;;5032343;28;19991;-56
2022/11/30 00:04:02;;;;;;;;;;;;;;;;;;5032141;28;19940;-56
2022/11/30 00:06:28;;;;;;;;;;;;;;;;;;5032183;28;19928;-58
2022/11/30 00:08:56;;;;;;;;;;;;;;;;;;5032094;28;19980;-56
2022/11/30 00:11:23;;;;;;;;;;;;;;;;;;5052084;28;20443;-58
2022/11/30 00:13:50;;;;;;;;;;;;;;;;;;5052430;28;19932;-59
2022/11/30 00:16:16;;;;;;;;;;;;;;;;;;5069467;22;19936;-51
2022/11/30 00:18:43;;;;;;;;;;;;;;;;;;5067682;28;19925;-53
2022/11/30 00:21:12;;;;;;;;;;;;;;;;;;5067801;28;19956;-51
2022/11/30 00:23:40;;;;;;;;;;;;;;;;;;5067572;28;19924;-49
2022/11/30 00:26:08;;;;;;;;;;;;;;;;;;5067801;28;20363;-51
2022/11/30 00:28:34;;;;;;;;;;;;;;;;;;5066991;28;19925;-52
2022/11/30 00:31:02;;;;;;;;;;;;;;;;;;5067163;28;19933;-53
2022/11/30 00:33:28;;;;;;;;;;;;;;;;;;5067357;28;19933;-51
2022/11/30 00:35:56;;;;;;;;;;;;;;;;;;5067730;28;19978;-52
2022/11/30 00:38:24;;;;;;;;;;;;;;;;;;5067242;28;20017;-55
2022/11/30 00:40:50;;;;;;;;;;;;;;;;;;5067719;28;19932;-52
2022/11/30 00:43:17;;;;;;;;;;;;;;;;;;5067165;28;19936;-52
2022/11/30 00:45:43;;;;;;;;;;;;;;;;;;5066710;28;20444;-52
2022/11/30 00:48:10;;;;;;;;;;;;;;;;;;5066996;28;19928;-54
2022/11/30 00:50:36;;;;;;;;;;;;;;;;;;5067349;28;20367;-54
2022/11/30 00:53:03;;;;;;;;;;;;;;;;;;5067488;28;19978;-53
2022/11/30 00:55:32;;;;;;;;;;;;;;;;;;5067419;28;19982;-55
2022/11/30 00:57:58;;;;;;;;;;;;;;;;;;5067208;28;20474;-52
2022/11/30 01:00:25;;;;;;;;;;;;;;;;;;5066891;28;20018;-53
2022/11/30 01:02:53;;;;;;;;;;;;;;;;;;5067148;28;19924;-54
2022/11/30 01:05:20;;;;;;;;;;;;;;;;;;5067183;28;19986;-50
2022/11/30 01:07:46;;;;;;;;;;;;;;;;;;5065949;28;19929;-51
2022/11/30 01:10:13;;;;;;;;;;;;;;;;;;5066634;28;19925;-53
2022/11/30 01:12:41;;;;;;;;;;;;;;;;;;5066887;28;19928;-52
2022/11/30 01:15:08;;;;;;;;;;;;;;;;;;5066472;28;19982;-52
2022/11/30 01:17:34;;;;;;;;;;;;;;;;;;5065807;28;20008;-51
2022/11/30 01:20:01;;;;;;;;;;;;;;;;;;5066816;28;19928;-53
2022/11/30 01:22:28;;;;;;;;;;;;;;;;;;5067410;28;20377;-51
2022/11/30 01:24:55;;;;;;;;;;;;;;;;;;5066755;28;19932;-52
2022/11/30 01:27:21;;;;;;;;;;;;;;;;;;5066651;28;19928;-55
2022/11/30 01:29:49;;;;;;;;;;;;;;;;;;5066879;28;20600;-54
2022/11/30 01:32:16;;;;;;;;;;;;;;;;;;5066359;28;19955;-53
2022/11/30 01:34:42;;;;;;;;;;;;;;;;;;5066852;28;20369;-51
2022/11/30 01:37:09;;;;;;;;;;;;;;;;;;5066535;28;19931;-51
2022/11/30 01:39:35;;;;;;;;;;;;;;;;;;5066350;28;19951;-53
2022/11/30 01:42:02;;;;;;;;;;;;;;;;;;5066143;28;20367;-51
2022/11/30 01:44:49;;;;;;;;;;;;;;;;;;5067170;28;19932;-55
2022/11/30 01:47:18;;;;;;;;;;;;;;;;;;5065892;28;19978;-53
2022/11/30 01:49:46;;;;;;;;;;;;;;;;;;5066263;28;19924;-52
2022/11/30 01:52:13;;;;;;;;;;;;;;;;;;5066928;28;19929;-54
2022/11/30 01:54:42;;;;;;;;;;;;;;;;;;5066589;28;19925;-50
2022/11/30 01:57:11;;;;;;;;;;;;;;;;;;5066389;28;19933;-51
2022/11/30 01:59:38;;;;;;;;;;;;;;;;;;5066393;28;19986;-55
2022/11/30 02:02:04;;;;;;;;;;;;;;;;;;5066244;28;19933;-53
2022/11/30 02:04:34;;;;;;;;;;;;;;;;;;5065846;28;19982;-52
2022/11/30 02:07:02;;;;;;;;;;;;;;;;;;5066484;28;20407;-53
2022/11/30 02:09:29;;;;;;;;;;;;;;;;;;5066228;28;19986;-50
2022/11/30 02:11:56;;;;;;;;;;;;;;;;;;5065909;28;19924;-53
2022/11/30 02:14:31;;;;;;;;;;;;;;;;;;5066627;28;19978;-51
2022/11/30 02:17:01;;;;;;;;;;;;;;;;;;5065954;28;19924;-52
2022/11/30 02:19:47;;;;;;;;;;;;;;;;;;5065777;28;19955;-52
2022/11/30 02:22:19;;;;;;;;;;;;;;;;;;5069172;28;20357;-53
2022/11/30 02:24:51;;;;;;;;;;;;;;;;;;5070196;28;19972;-51
2022/11/30 02:27:23;;;;;;;;;;;;;;;;;;5069691;28;19938;-51
2022/11/30 02:29:54;;;;;;;;;;;;;;;;;;5070181;28;19978;-52
2022/11/30 02:32:22;;;;;;;;;;;;;;;;;;5069952;28;19929;-52
2022/11/30 02:34:50;;;;;;;;;;;;;;;;;;5070026;28;20311;-53
2022/11/30 02:37:17;;;;;;;;;;;;;;;;;;5069339;28;19924;-54
2022/11/30 02:39:43;;;;;;;;;;;;;;;;;;5069899;28;19982;-56
2022/11/30 02:42:11;;;;;;;;;;;;;;;;;;5069656;28;19924;-51
2022/11/30 02:44:38;;;;;;;;;;;;;;;;;;5069665;28;20011;-54
2022/11/30 02:47:12;;;;;;;;;;;;;;;;;;5069084;28;19980;-54
2022/11/30 02:49:42;;;;;;;;;;;;;;;;;;5069509;28;19939;-54
2022/11/30 02:52:10;;;;;;;;;;;;;;;;;;5069960;28;19924;-56
2022/11/30 02:54:36;;;;;;;;;;;;;;;;;;5069779;28;20369;-51
2022/11/30 02:57:03;;;;;;;;;;;;;;;;;;5069107;28;19925;-52
2022/11/30 02:59:30;;;;;;;;;;;;;;;;;;5069471;28;19933;-52
2022/11/30 03:01:56;;;;;;;;;;;;;;;;;;5068890;28;19933;-53
2022/11/30 03:04:24;;;;;;;;;;;;;;;;;;5069400;28;19924;-53
2022/11/30 03:06:50;;;;;;;;;;;;;;;;;;5069042;28;19985;-53
2022/11/30 03:09:17;;;;;;;;;;;;;;;;;;5068419;28;20025;-52
2022/11/30 03:11:43;;;;;;;;;;;;;;;;;;5069342;28;19928;-51
2022/11/30 03:14:10;;;;;;;;;;;;;;;;;;5068879;28;19936;-51
2022/11/30 03:16:37;;;;;;;;;;;;;;;;;;5069194;28;19974;-51
2022/11/30 03:19:04;;;;;;;;;;;;;;;;;;5068970;28;19978;-51
2022/11/30 03:21:32;;;;;;;;;;;;;;;;;;5069347;28;19928;-55
2022/11/30 03:23:58;;;;;;;;;;;;;;;;;;5069228;28;19932;-52
2022/11/30 03:26:25;;;;;;;;;;;;;;;;;;5069194;28;20418;-51
2022/11/30 03:28:51;;;;;;;;;;;;;;;;;;5068989;28;20369;-51
2022/11/30 03:31:18;;;;;;;;;;;;;;;;;;5067708;28;20294;-53
2022/11/30 03:33:44;;;;;;;;;;;;;;;;;;5067319;28;19970;-52
2022/11/30 03:36:12;;;;;;;;;;;;;;;;;;5067356;28;20208;-51
2022/11/30 03:38:40;;;;;;;;;;;;;;;;;;5066858;28;20316;-53
2022/11/30 03:41:07;;;;;;;;;;;;;;;;;;5068450;28;19972;-53
2022/11/30 03:43:34;;;;;;;;;;;;;;;;;;5067601;28;20271;-52
2022/11/30 03:46:00;;;;;;;;;;;;;;;;;;5067366;28;20092;-52
2022/11/30 03:48:27;;;;;;;;;;;;;;;;;;5066603;28;20015;-53
2022/11/30 03:50:54;;;;;;;;;;;;;;;;;;5065790;28;19941;-50
2022/11/30 03:53:21;;;;;;;;;;;;;;;;;;5066258;28;19924;-54
2022/11/30 03:55:53;;;;;;;;;;;;;;;;;;5066806;28;20370;-53
2022/11/30 03:58:20;;;;;;;;;;;;;;;;;;5066669;28;20427;-50
2022/11/30 04:00:47;;;;;;;;;;;;;;;;;;5066538;28;19932;-50
2022/11/30 04:03:13;;;;;;;;;;;;;;;;;;5065959;28;19925;-52
2022/11/30 04:05:40;;;;;;;;;;;;;;;;;;5067754;28;19924;-52
2022/11/30 04:08:06;;;;;;;;;;;;;;;;;;5066776;28;19931;-52
2022/11/30 04:10:33;;;;;;;;;;;;;;;;;;5066622;28;20011;-54
2022/11/30 04:13:01;;;;;;;;;;;;;;;;;;5066711;28;19924;-52
2022/11/30 04:15:27;;;;;;;;;;;;;;;;;;5065850;28;19932;-50
2022/11/30 04:17:54;;;;;;;;;;;;;;;;;;5065803;28;19928;-51
2022/11/30 04:20:20;;;;;;;;;;;;;;;;;;5066097;28;20439;-52
2022/11/30 04:22:47;;;;;;;;;;;;;;;;;;5066474;28;19932;-53
2022/11/30 04:25:14;;;;;;;;;;;;;;;;;;5066137;28;19936;-54
2022/11/30 04:27:40;;;;;;;;;;;;;;;;;;5066659;28;19994;-54
2022/11/30 04:30:09;;;;;;;;;;;;;;;;;;5065209;28;20498;-53
2022/11/30 04:32:35;;;;;;;;;;;;;;;;;;5065660;28;19928;-51
2022/11/30 04:35:02;;;;;;;;;;;;;;;;;;5064822;28;19932;-56
2022/11/30 04:37:28;;;;;;;;;;;;;;;;;;5064984;28;19944;-52
2022/11/30 04:39:55;;;;;;;;;;;;;;;;;;5066193;28;19924;-50
2022/11/30 04:42:22;;;;;;;;;;;;;;;;;;5065398;28;19928;-51
2022/11/30 04:44:48;;;;;;;;;;;;;;;;;;5065352;28;19924;-52
2022/11/30 04:47:16;;;;;;;;;;;;;;;;;;5066098;28;19970;-52
2022/11/30 04:49:43;;;;;;;;;;;;;;;;;;5066186;28;21341;-53
2022/11/30 04:52:12;;;;;;;;;;;;;;;;;;5065073;28;19977;-52
2022/11/30 04:54:38;;;;;;;;;;;;;;;;;;5065171;28;19924;-52
2022/11/30 04:57:05;;;;;;;;;;;;;;;;;;5065704;28;20340;-52
2022/11/30 04:59:31;;;;;;;;;;;;;;;;;;5065669;28;19929;-52
2022/11/30 05:01:58;;;;;;;;;;;;;;;;;;5065156;28;19924;-53
2022/11/30 05:04:26;;;;;;;;;;;;;;;;;;5064870;28;19939;-53
2022/11/30 05:06:53;;;;;;;;;;;;;;;;;;5064979;28;20291;-52
2022/11/30 05:09:19;;;;;;;;;;;;;;;;;;5065246;28;19932;-53
2022/11/30 05:11:47;;;;;;;;;;;;;;;;;;5065836;28;19924;-53
2022/11/30 05:14:14;;;;;;;;;;;;;;;;;;5049773;28;19925;-52
2022/11/30 05:16:40;;;;;;;;;;;;;;;;;;5054620;28;19939;-52
2022/11/30 05:19:07;;;;;;;;;;;;;;;;;;5070373;28;19925;-52
2022/11/30 05:21:35;;;;;;;;;;;;;;;;;;5070247;28;19935;-51
2022/11/30 05:24:01;;;;;;;;;;;;;;;;;;5070522;28;19924;-52
2022/11/30 05:26:28;;;;;;;;;;;;;;;;;;5069967;28;19931;-52
2022/11/30 05:28:54;;;;;;;;;;;;;;;;;;5070084;28;19928;-51
2022/11/30 05:31:21;;;;;;;;;;;;;;;;;;5070495;28;19986;-51
2022/11/30 05:33:49;;;;;;;;;;;;;;;;;;5070396;28;19978;-56
2022/11/30 05:36:16;;;;;;;;;;;;;;;;;;5070574;28;19925;-52
2022/11/30 05:38:44;;;;;;;;;;;;;;;;;;5070056;28;19986;-51
2022/11/30 05:41:10;;;;;;;;;;;;;;;;;;5070575;28;19928;-53
2022/11/30 05:43:37;;;;;;;;;;;;;;;;;;5070458;28;20616;-53
2022/11/30 05:46:04;;;;;;;;;;;;;;;;;;5070110;28;19929;-51
2022/11/30 05:48:31;;;;;;;;;;;;;;;;;;5069805;28;19924;-51
2022/11/30 05:51:04;;;;;;;;;;;;;;;;;;5070182;28;19932;-53
2022/11/30 05:53:31;;;;;;;;;;;;;;;;;;5070421;28;19986;-51
2022/11/30 05:56:06;;;;;;;;;;;;;;;;;;5071787;28;19951;-55
2022/11/30 05:58:33;;;;;;;;;;;;;;;;;;5074372;28;19933;-51
2022/11/30 06:00:59;;;;;;;;;;;;;;;;;;5074387;28;19925;-53
2022/11/30 06:03:29;;;;;;;;;;;;;;;;;;5057246;28;19931;-53
2022/11/30 06:05:56;;;;;;;;;;;;;;;;;;5075435;28;20373;-52
2022/11/30 06:08:23;;;;;;;;;;;;;;;;;;5075448;28;19986;-50
2022/11/30 06:10:49;;;;;;;;;;;;;;;;;;5074423;28;20274;-50
2022/11/30 06:13:17;;;;;;;;;;;;;;;;;;5075119;28;20045;-50
2022/11/30 06:15:44;;;;;;;;;;;;;;;;;;5073963;28;19931;-51
2022/11/30 06:18:12;;;;;;;;;;;;;;;;;;5072637;28;19924;-51
2022/11/30 06:20:39;;;;;;;;;;;;;;;;;;5073557;28;19936;-51
2022/11/30 06:23:05;;;;;;;;;;;;;;;;;;5073445;28;19978;-51
2022/11/30 06:25:32;;;;;;;;;;;;;;;;;;5073382;28;20313;-52
2022/11/30 06:27:59;;;;;;;;;;;;;;;;;;5073527;28;19932;-49
2022/11/30 06:30:26;;;;;;;;;;;;;;;;;;5074075;28;19928;-53
2022/11/30 06:32:53;;;;;;;;;;;;;;;;;;5073537;28;19928;-51
2022/11/30 06:35:19;;;;;;;;;;;;;;;;;;5073539;28;19982;-50
2022/11/30 06:37:46;;;;;;;;;;;;;;;;;;5072841;28;19928;-50
2022/11/30 06:40:13;;;;;;;;;;;;;;;;;;5073279;28;19928;-54
2022/11/30 06:42:40;;;;;;;;;;;;;;;;;;5073210;28;20381;-52
2022/11/30 06:45:07;;;;;;;;;;;;;;;;;;5073394;28;20442;-55
2022/11/30 06:47:35;;;;;;;;;;;;;;;;;;5072900;28;20282;-52
2022/11/30 06:50:01;;;;;;;;;;;;;;;;;;5072840;28;19936;-53
2022/11/30 06:52:29;;;;;;;;;;;;;;;;;;5073220;28;19931;-51
2022/11/30 06:54:56;;;;;;;;;;;;;;;;;;5072062;28;19951;-51
2022/11/30 06:57:26;;;;;;;;;;;;;;;;;;5072219;28;20401;-53
2022/11/30 06:59:52;;;;;;;;;;;;;;;;;;5072801;28;19924;-52
2022/11/30 07:02:19;;;;;;;;;;;;;;;;;;5072852;28;19946;-51
2022/11/30 07:04:47;;;;;;;;;;;;;;;;;;5072688;28;19985;-53
2022/11/30 07:07:13;;;;;;;;;;;;;;;;;;5071510;28;20007;-51
2022/11/30 07:09:40;;;;;;;;;;;;;;;;;;5072773;28;19924;-53
2022/11/30 07:12:07;;;;;;;;;;;;;;;;;;5072656;28;20015;-51
2022/11/30 07:14:34;;;;;;;;;;;;;;;;;;5072782;28;19928;-53
2022/11/30 07:17:03;;;;;;;;;;;;;;;;;;5072415;28;19924;-52
2022/11/30 07:19:30;;;;;;;;;;;;;;;;;;5073041;28;19932;-50
2022/11/30 07:21:58;;;;;;;;;;;;;;;;;;5072569;28;19971;-53
2022/11/30 07:27:08;;;;;;;;;;;;;;;;;;5072444;28;20025;-51
2022/11/30 07:29:35;;;;;;;;;;;;;;;;;;5072235;28;19932;-51
2022/11/30 07:32:01;;;;;;;;;;;;;;;;;;5072515;28;19932;-51
2022/11/30 07:34:28;;;;;;;;;;;;;;;;;;5072318;28;19924;-50
2022/11/30 07:36:55;;;;;;;;;;;;;;;;;;5071547;28;19924;-53
2022/11/30 07:39:23;;;;;;;;;;;;;;;;;;5072230;28;20381;-54
2022/11/30 07:41:50;;;;;;;;;;;;;;;;;;5072407;28;20310;-52
2022/11/30 07:44:16;;;;;;;;;;;;;;;;;;5072112;28;19928;-55
2022/11/30 07:46:43;;;;;;;;;;;;;;;;;;5072754;28;20295;-52
2022/11/30 07:49:10;;;;;;;;;;;;;;;;;;5071618;28;19925;-50
2022/11/30 07:51:37;;;;;;;;;;;;;;;;;;5072132;28;19928;-54
2022/11/30 07:54:04;;;;;;;;;;;;;;;;;;5071909;28;20202;-53
2022/11/30 07:56:32;;;;;;;;;;;;;;;;;;5071562;28;19928;-53
2022/11/30 07:58:59;;;;;;;;;;;;;;;;;;5071709;28;20293;-54
2022/11/30 08:01:27;;;;;;;;;;;;;;;;;;5071450;28;19978;-53
2022/11/30 08:03:54;;;;;;;;;;;;;;;;;;5072014;28;19954;-51
2022/11/30 08:06:22;;;;;;;;;;;;;;;;;;5071397;28;20633;-51
2022/11/30 08:08:49;;;;;;;;;;;;;;;;;;5071070;28;19978;-50
2022/11/30 08:11:22;;;;;;;;;;;;;;;;;;5071691;28;20289;-50
2022/11/30 08:13:52;;;;;;;;;;;;;;;;;;5071661;28;19925;-52
2022/11/30 08:16:23;;;;;;;;;;;;;;;;;;5071214;28;20363;-54
2022/11/30 08:18:53;;;;;;;;;;;;;;;;;;5070590;28;19924;-52
2022/11/30 08:21:20;;;;;;;;;;;;;;;;;;5071787;28;19977;-52
2022/11/30 08:23:48;;;;;;;;;;;;;;;;;;5070969;28;19928;-52
2022/11/30 08:26:15;;;;;;;;;;;;;;;;;;5071891;28;20366;-53
2022/11/30 08:28:42;;;;;;;;;;;;;;;;;;5070638;28;19932;-52
2022/11/30 08:31:12;;;;;;;;;;;;;;;;;;5071272;28;20526;-51
2022/11/30 08:33:39;;;;;;;;;;;;;;;;;;5071156;28;19958;-52
2022/11/30 08:36:06;;;;;;;;;;;;;;;;;;5071436;28;19925;-53
2022/11/30 08:38:33;;;;;;;;;;;;;;;;;;5070292;28;19925;-50
2022/11/30 08:41:00;;;;;;;;;;;;;;;;;;5071214;28;19977;-50
2022/11/30 08:43:27;;;;;;;;;;;;;;;;;;5071090;28;19925;-55
2022/11/30 08:45:54;;;;;;;;;;;;;;;;;;5071329;28;19970;-58
2022/11/30 08:48:22;;;;;;;;;;;;;;;;;;5070423;28;19925;-53
2022/11/30 08:50:48;;;;;;;;;;;;;;;;;;5071185;28;19978;-56
2022/11/30 08:53:15;;;;;;;;;;;;;;;;;;5071256;28;19932;-51
2022/11/30 08:55:41;;;;;;;;;;;;;;;;;;5070490;28;19924;-55
2022/11/30 08:58:08;;;;;;;;;;;;;;;;;;5070788;28;19993;-55
2022/11/30 09:00:34;;;;;;;;;;;;;;;;;;5070631;28;19928;-54
2022/11/30 09:03:01;;;;;;;;;;;;;;;;;;5070051;28;19970;-52
2022/11/30 09:05:29;;;;;;;;;;;;;;;;;;5066014;28;19924;-49
2022/11/30 09:07:55;;;;;;;;;;;;;;;;;;5050570;28;19974;-55
2022/11/30 09:10:22;;;;;;;;;;;;;;;;;;5050490;28;19925;-52
2022/11/30 09:12:48;;;;;;;;;;;;;;;;;;5050643;28;20301;-56
2022/11/30 09:15:16;;;;;;;;;;;;;;;;;;5050565;28;19968;-56
2022/11/30 09:17:43;;;;;;;;;;;;;;;;;;5050256;28;19931;-57
2022/11/30 09:20:10;;;;;;;;;;;;;;;;;;5050153;28;19976;-56
2022/11/30 09:22:38;;;;;;;;;;;;;;;;;;5050014;28;19924;-57
2022/11/30 09:25:05;;;;;;;;;;;;;;;;;;5050226;28;20313;-55
2022/11/30 09:27:31;;;;;;;;;;;;;;;;;;5050268;28;20378;-57
2022/11/30 09:29:58;;;;;;;;;;;;;;;;;;5050179;28;19995;-63
2022/11/30 09:32:25;;;;;;;;;;;;;;;;;;5053967;28;19932;-54
2022/11/30 09:34:51;;;;;;;;;;;;;;;;;;5066136;28;19928;-54
2022/11/30 09:37:18;;;;;;;;;;;;;;;;;;5050200;28;20288;-54
2022/11/30 09:39:46;;;;;;;;;;;;;;;;;;5050151;28;19936;-55
2022/11/30 09:42:30;;;;;;;;;;;;;;;;;;5065693;28;19968;-53
2022/11/30 09:45:02;;;;;;;;;;;;;;;;;;5050498;28;19925;-54
2022/11/30 09:47:37;;;;;;;;;;;;;;;;;;5059142;28;20247;-55
2022/11/30 09:50:09;;;;;;;;;;;;;;;;;;5070330;28;19989;-55
2022/11/30 09:52:37;;;;;;;;;;;;;;;;;;5069911;28;20027;-56
2022/11/30 09:55:08;;;;;;;;;;;;;;;;;;5070382;28;19970;-55
2022/11/30 09:57:37;;;;;;;;;;;;;;;;;;5066633;28;20381;-54
2022/11/30 10:00:06;;;;;;;;;;;;;;;;;;5050225;28;20353;-57
2022/11/30 10:02:34;;;;;;;;;;;;;;;;;;5060137;28;19929;-53
2022/11/30 10:05:00;;;;;;;;;;;;;;;;;;5054413;28;20456;-56
2022/11/30 10:07:35;;;;;;;;;;;;;;;;;;5050251;28;19925;-55
2022/11/30 10:10:06;;;;;;;;;;;;;;;;;;5050241;28;19994;-53
2022/11/30 10:12:37;;;;;;;;;;;;;;;;;;5050586;28;19932;-51
2022/11/30 10:15:08;;;;;;;;;;;;;;;;;;5065717;28;19928;-56
2022/11/30 10:17:39;;;;;;;;;;;;;;;;;;5068951;28;20292;-56
2022/11/30 10:20:17;;;;;;;;;;;;;;;;;;5090174;28;19924;-55
2022/11/30 10:22:52;;;;;;;;;;;;;;;;;;5071237;28;19991;-55
2022/11/30 10:25:22;;;;;;;;;;;;;;;;;;5069831;28;20015;-54
2022/11/30 10:27:51;;;;;;;;;;;;;;;;;;5069443;28;19924;-55
2022/11/30 10:30:21;;;;;;;;;;;;;;;;;;5054988;28;20357;-53
2022/11/30 10:32:49;;;;;;;;;;;;;;;;;;5070668;28;20102;-54
2022/11/30 10:35:18;;;;;;;;;;;;;;;;;;5068009;28;19936;-52
2022/11/30 10:37:45;;;;;;;;;;;;;;;;;;5069590;28;19928;-54
2022/11/30 10:40:13;;;;;;;;;;;;;;;;;;5069215;28;19925;-56
2022/11/30 10:42:43;;;;;;;;;;;;;;;;;;5069659;28;20289;-53
2022/11/30 10:45:13;;;;;;;;;;;;;;;;;;5069106;28;20008;-55
2022/11/30 10:47:42;;;;;;;;;;;;;;;;;;5081096;28;20361;-55
2022/11/30 10:50:13;;;;;;;;;;;;;;;;;;5072269;28;19932;-55
2022/11/30 10:52:42;;;;;;;;;;;;;;;;;;5073213;28;19993;-54
2022/11/30 10:55:13;;;;;;;;;;;;;;;;;;5070844;28;20282;-54
2022/11/30 10:57:41;;;;;;;;;;;;;;;;;;5052989;28;19925;-55
2022/11/30 11:00:15;;;;;;;;;;;;;;;;;;5060676;28;19956;-53
2022/11/30 11:02:43;;;;;;;;;;;;;;;;;;5072944;28;19932;-55
2022/11/30 11:05:21;;;;;;;;;;;;;;;;;;5055849;28;19925;-55
2022/11/30 11:07:49;;;;;;;;;;;;;;;;;;5053021;28;20333;-56
2022/11/30 11:10:17;;;;;;;;;;;;;;;;;;5052890;28;19928;-55
2022/11/30 11:12:47;;;;;;;;;;;;;;;;;;5064350;28;20431;-55
2022/11/30 11:15:17;;;;;;;;;;;;;;;;;;5067587;28;19932;-57
2022/11/30 11:17:44;;;;;;;;;;;;;;;;;;5055008;28;19924;-55
2022/11/30 11:20:27;;;;;;;;;;;;;;;;;;5061508;28;19928;-55
2022/11/30 11:22:53;;;;;;;;;;;;;;;;;;5063320;28;20397;-55
2022/11/30 11:25:21;;;;;;;;;;;;;;;;;;5063311;28;19929;-54
2022/11/30 11:27:51;;;;;;;;;;;;;;;;;;5061763;28;19974;-56
2022/11/30 11:30:29;;;;;;;;;;;;;;;;;;5071966;28;19946;-55
2022/11/30 11:32:59;;;;;;;;;;;;;;;;;;5068057;28;19994;-54
2022/11/30 11:35:34;;;;;;;;;;;;;;;;;;5070802;28;19971;-55
2022/11/30 11:38:00;;;;;;;;;;;;;;;;;;5075451;28;20423;-56
2022/11/30 11:40:27;;;;;;;;;;;;;;;;;;5071790;28;19924;-57
2022/11/30 11:42:57;;;;;;;;;;;;;;;;;;5080007;28;20264;-53
2022/11/30 11:45:25;;;;;;;;;;;;;;;;;;5076523;28;19993;-55
2022/11/30 11:47:57;;;;;;;;;;;;;;;;;;5069852;28;20270;-55
2022/11/30 11:50:26;;;;;;;;;;;;;;;;;;5066526;28;20420;-56
2022/11/30 11:53:06;;;;;;;;;;;;;;;;;;5071236;28;19970;-55
2022/11/30 11:55:34;;;;;;;;;;;;;;;;;;5072222;28;19931;-56
2022/11/30 11:58:02;;;;;;;;;;;;;;;;;;5071962;28;19924;-53
2022/11/30 12:00:30;;;;;;;;;;;;;;;;;;5069766;28;19928;-56
2022/11/30 12:02:58;;;;;;;;;;;;;;;;;;5061347;28;19925;-56
2022/11/30 12:05:27;;;;;;;;;;;;;;;;;;5052662;28;19933;-54
2022/11/30 12:08:00;;;;;;;;;;;;;;;;;;5060667;28;19924;-56
2022/11/30 12:10:30;;;;;;;;;;;;;;;;;;5070386;28;19970;-54
2022/11/30 12:12:58;;;;;;;;;;;;;;;;;;5070930;28;20326;-54
2022/11/30 12:15:28;;;;;;;;;;;;;;;;;;5068342;28;19936;-55
2022/11/30 12:18:01;;;;;;;;;;;;;;;;;;5067896;28;19932;-54
2022/11/30 12:20:32;;;;;;;;;;;;;;;;;;5068385;28;20011;-56
2022/11/30 12:23:05;;;;;;;;;;;;;;;;;;5069123;28;19924;-54
2022/11/30 12:25:36;;;;;;;;;;;;;;;;;;5069846;28;19932;-54
2022/11/30 12:28:13;;;;;;;;;;;;;;;;;;5051497;28;19929;-55
2022/11/30 12:30:44;;;;;;;;;;;;;;;;;;5051529;28;20297;-57
2022/11/30 12:33:15;;;;;;;;;;;;;;;;;;5051106;28;19975;-56
2022/11/30 12:35:57;;;;;;;;;;;;;;;;;;5050962;28;19925;-57
2022/11/30 12:38:32;;;;;;;;;;;;;;;;;;5051020;28;19929;-57
2022/11/30 12:41:01;;;;;;;;;;;;;;;;;;5065481;28;20347;-56
2022/11/30 12:43:35;;;;;;;;;;;;;;;;;;5085394;28;19930;-64
2022/11/30 12:46:06;;;;;;;;;;;;;;;;;;5077660;28;19931;-65
2022/11/30 12:48:38;;;;;;;;;;;;;;;;;;5054658;28;20366;-65
2022/11/30 12:51:09;;;;;;;;;;;;;;;;;;5068517;28;19925;-58
2022/11/30 12:53:38;;;;;;;;;;;;;;;;;;5058314;28;19932;-64
2022/11/30 12:56:12;;;;;;;;;;;;;;;;;;5067604;28;19935;-63
2022/11/30 12:58:41;;;;;;;;;;;;;;;;;;5071955;28;19969;-62
2022/11/30 13:01:16;;;;;;;;;;;;;;;;;;5061048;28;19936;-55
2022/11/30 13:03:50;;;;;;;;;;;;;;;;;;5059526;28;19971;-55
2022/11/30 13:06:20;;;;;;;;;;;;;;;;;;5067452;28;20387;-64
2022/11/30 13:08:51;;;;;;;;;;;;;;;;;;5062372;28;19924;-57
2022/11/30 13:11:21;;;;;;;;;;;;;;;;;;5050805;28;19925;-56
2022/11/30 13:13:50;;;;;;;;;;;;;;;;;;5051698;28;20400;-56
2022/11/30 13:16:17;;;;;;;;;;;;;;;;;;5050708;28;19925;-58
2022/11/30 13:18:44;;;;;;;;;;;;;;;;;;5067739;28;19925;-59
2022/11/30 13:21:16;;;;;;;;;;;;;;;;;;5060359;28;20384;-57
2022/11/30 13:23:47;;;;;;;;;;;;;;;;;;5067353;28;19978;-55
2022/11/30 13:26:22;;;;;;;;;;;;;;;;;;5070897;28;20404;-55
2022/11/30 13:28:56;;;;;;;;;;;;;;;;;;5060963;28;19929;-56
2022/11/30 13:31:25;;;;;;;;;;;;;;;;;;5063365;28;20261;-56
2022/11/30 13:33:57;;;;;;;;;;;;;;;;;;5081408;28;19925;-56
2022/11/30 13:36:30;;;;;;;;;;;;;;;;;;5071334;28;19983;-56
2022/11/30 13:39:24;;;;;;;;;;;;;;;;;;5081352;28;19968;-56
2022/11/30 13:41:52;;;;;;;;;;;;;;;;;;5006202;28;19925;-58
2022/11/30 13:44:23;;;;;;;;;;;;;;;;;;5068284;28;20153;-55
2022/11/30 13:46:50;;;;;;;;;;;;;;;;;;5070453;28;19924;-57
2022/11/30 13:49:20;;;;;;;;;;;;;;;;;;5070118;28;19924;-55
2022/11/30 13:51:48;;;;;;;;;;;;;;;;;;5070296;28;19925;-55
2022/11/30 13:54:33;;;;;;;;;;;;;;;;;;5069895;28;20289;-55
2022/11/30 13:57:00;;;;;;;;;;;;;;;;;;5064997;28;19929;-56
2022/11/30 13:59:34;;;;;;;;;;;;;;;;;;5070123;28;19924;-56
2022/11/30 14:02:19;;;;;;;;;;;;;;;;;;5070487;28;19959;-57
2022/11/30 14:04:46;;;;;;;;;;;;;;;;;;5056493;28;19925;-57
2022/11/30 14:07:31;;;;;;;;;;;;;;;;;;5049909;28;19925;-58
2022/11/30 14:09:59;;;;;;;;;;;;;;;;;;5050459;28;20391;-59
2022/11/30 14:12:46;;;;;;;;;;;;;;;;;;5050166;28;19929;-56
2022/11/30 14:15:45;;;;;;;;;;;;;;;;;;5060528;28;19932;-63
2022/11/30 14:18:16;;;;;;;;;;;;;;;;;;5071980;28;19938;-53
2022/11/30 14:20:45;;;;;;;;;;;;;;;;;;5073804;28;19925;-63
2022/11/30 14:23:13;;;;;;;;;;;;;;;;;;5068873;28;20392;-53
2022/11/30 14:25:43;;;;;;;;;;;;;;;;;;5073306;28;19978;-52
2022/11/30 14:28:14;;;;;;;;;;;;;;;;;;5073356;28;19925;-57
2022/11/30 14:30:42;;;;;;;;;;;;;;;;;;5073798;28;19928;-54
2022/11/30 14:33:12;;;;;;;;;;;;;;;;;;5073917;28;19928;-55
2022/11/30 14:35:40;;;;;;;;;;;;;;;;;;5073412;28;19962;-56
2022/11/30 14:38:15;;;;;;;;;;;;;;;;;;5072966;28;19964;-57
2022/11/30 14:40:50;;;;;;;;;;;;;;;;;;5073036;28;19974;-60
2022/11/30 14:43:17;;;;;;;;;;;;;;;;;;5072309;28;19925;-56
2022/11/30 14:45:55;;;;;;;;;;;;;;;;;;5072200;28;19924;-56
2022/11/30 14:48:22;;;;;;;;;;;;;;;;;;5069910;28;19928;-54
2022/11/30 14:50:50;;;;;;;;;;;;;;;;;;5053531;28;19991;-56
2022/11/30 14:53:22;;;;;;;;;;;;;;;;;;5060977;28;19924;-58
2022/11/30 14:55:52;;;;;;;;;;;;;;;;;;5073266;28;19928;-57
2022/11/30 14:58:22;;;;;;;;;;;;;;;;;;5074381;28;20349;-55
2022/11/30 15:00:49;;;;;;;;;;;;;;;;;;5091875;28;20286;-55
2022/11/30 15:03:17;;;;;;;;;;;;;;;;;;5081149;28;19924;-54
2022/11/30 15:05:44;;;;;;;;;;;;;;;;;;5063183;28;19929;-56
2022/11/30 15:08:13;;;;;;;;;;;;;;;;;;5052490;28;19932;-57
2022/11/30 15:10:40;;;;;;;;;;;;;;;;;;5052916;28;19925;-58
2022/11/30 15:13:12;;;;;;;;;;;;;;;;;;5052875;28;19987;-56
2022/11/30 15:15:49;;;;;;;;;;;;;;;;;;5052834;28;19935;-57
2022/11/30 15:18:16;;;;;;;;;;;;;;;;;;5052752;28;19935;-57
2022/11/30 15:20:45;;;;;;;;;;;;;;;;;;5059065;28;20373;-51
2022/11/30 15:23:12;;;;;;;;;;;;;;;;;;5073027;28;19925;-56
2022/11/30 15:25:40;;;;;;;;;;;;;;;;;;5069994;28;19928;-59
2022/11/30 15:28:10;;;;;;;;;;;;;;;;;;5067934;28;19928;-57
2022/11/30 15:30:39;;;;;;;;;;;;;;;;;;5052057;28;19932;-58
2022/11/30 15:33:05;;;;;;;;;;;;;;;;;;5062757;28;19925;-59
2022/11/30 15:35:32;;;;;;;;;;;;;;;;;;5070706;28;19947;-58
2022/11/30 15:37:58;;;;;;;;;;;;;;;;;;5072379;28;19990;-58
2022/11/30 15:40:32;;;;;;;;;;;;;;;;;;5072166;28;19951;-56
2022/11/30 15:43:00;;;;;;;;;;;;;;;;;;5071642;28;19932;-55
2022/11/30 15:45:28;;;;;;;;;;;;;;;;;;5059958;28;20040;-56
2022/11/30 15:47:55;;;;;;;;;;;;;;;;;;5051792;28;19932;-56
2022/11/30 15:50:34;;;;;;;;;;;;;;;;;;5051817;28;19932;-56
2022/11/30 15:53:02;;;;;;;;;;;;;;;;;;5052153;28;20518;-59
2022/11/30 15:55:41;;;;;;;;;;;;;;;;;;5052192;28;19964;-57
2022/11/30 15:58:23;;;;;;;;;;;;;;;;;;5052035;28;20382;-57
2022/11/30 16:00:59;;;;;;;;;;;;;;;;;;5061390;28;19925;-57
2022/11/30 16:03:26;;;;;;;;;;;;;;;;;;5069553;28;19924;-57
2022/11/30 16:05:55;;;;;;;;;;;;;;;;;;5066286;28;19974;-55
2022/11/30 16:08:22;;;;;;;;;;;;;;;;;;5066389;28;19933;-58
2022/11/30 16:10:48;;;;;;;;;;;;;;;;;;5071586;28;19931;-55
2022/11/30 16:13:16;;;;;;;;;;;;;;;;;;5070474;28;19995;-57
2022/11/30 16:15:45;;;;;;;;;;;;;;;;;;5071341;28;20366;-57
2022/11/30 16:18:16;;;;;;;;;;;;;;;;;;5071921;28;19950;-57
2022/11/30 16:20:43;;;;;;;;;;;;;;;;;;5071554;28;19925;-56
2022/11/30 16:23:13;;;;;;;;;;;;;;;;;;5071504;28;20013;-55
2022/11/30 16:25:40;;;;;;;;;;;;;;;;;;5061484;28;20298;-54
2022/11/30 16:28:08;;;;;;;;;;;;;;;;;;5051763;28;20334;-57
2022/11/30 16:30:34;;;;;;;;;;;;;;;;;;5051444;28;19925;-55
2022/11/30 16:33:01;;;;;;;;;;;;;;;;;;5051513;28;19990;-57
2022/11/30 16:35:34;;;;;;;;;;;;;;;;;;5071236;28;20139;-58
2022/11/30 16:38:01;;;;;;;;;;;;;;;;;;5087993;28;19924;-56
2022/11/30 16:40:28;;;;;;;;;;;;;;;;;;5090851;28;20324;-57
2022/11/30 16:42:54;;;;;;;;;;;;;;;;;;5091321;28;19924;-57
2022/11/30 16:45:22;;;;;;;;;;;;;;;;;;5070369;28;19924;-57
2022/11/30 16:47:48;;;;;;;;;;;;;;;;;;5050805;28;19974;-56
2022/11/30 16:50:15;;;;;;;;;;;;;;;;;;5054679;28;19924;-56
2022/11/30 16:52:43;;;;;;;;;;;;;;;;;;5065824;28;19924;-57
2022/11/30 16:55:12;;;;;;;;;;;;;;;;;;5071304;28;20396;-54
2022/11/30 16:57:39;;;;;;;;;;;;;;;;;;5063698;28;19932;-58
2022/11/30 17:00:06;;;;;;;;;;;;;;;;;;5068035;28;19929;-57